createdAt,value
2022-11-05T00:01:16.960Z,99.24
2022-11-05T00:06:36.729Z,99.20
2022-11-05T00:12:00.664Z,99.47
2022-11-05T00:17:01.644Z,99.32
2022-11-05T00:22:21.054Z,99.28
2022-11-05T00:27:22.090Z,99.33
2022-11-05T00:32:23.084Z,99.41
2022-11-05T00:37:27.445Z,99.49
2022-11-05T00:42:47.361Z,99.60
2022-11-05T00:48:07.061Z,99.75
2022-11-05T00:53:08.628Z,99.96
2022-11-05T00:58:15.833Z,100.00
2022-11-05T01:03:19.099Z,100.00
2022-11-05T01:08:22.359Z,100.00
2022-11-05T01:13:26.998Z,100.00
2022-11-05T01:18:28.254Z,100.00
2022-11-05T01:23:29.327Z,100.00
2022-11-05T01:28:30.489Z,100.00
2022-11-05T01:33:31.632Z,100.00
2022-11-05T01:38:32.657Z,100.00
2022-11-05T01:43:53.681Z,100.00
2022-11-05T01:49:03.191Z,100.00
2022-11-05T01:54:10.048Z,100.00
2022-11-05T01:59:17.674Z,100.00
2022-11-05T02:04:39.147Z,100.00
2022-11-05T02:10:03.774Z,100.00
2022-11-05T02:15:05.990Z,100.00
2022-11-05T02:20:28.964Z,100.00
2022-11-05T02:26:07.779Z,100.00
2022-11-05T02:31:20.691Z,100.00
2022-11-05T02:36:45.795Z,100.00
2022-11-05T02:42:05.832Z,100.00
2022-11-05T02:47:25.434Z,100.00
2022-11-05T02:52:42.356Z,100.00
2022-11-05T02:57:45.820Z,100.00
2022-11-05T03:02:46.980Z,100.00
2022-11-05T03:07:57.582Z,100.00
2022-11-05T03:13:44.488Z,100.00
2022-11-05T03:18:53.951Z,100.00
2022-11-05T03:24:08.265Z,100.00
2022-11-05T03:29:16.784Z,100.00
2022-11-05T03:34:21.723Z,100.00
2022-11-05T03:39:29.640Z,100.00
2022-11-05T03:44:35.372Z,100.00
2022-11-05T03:49:46.708Z,100.00
2022-11-05T03:54:47.866Z,100.00
2022-11-05T03:59:50.249Z,100.00
2022-11-05T04:04:51.974Z,100.00
2022-11-05T04:10:11.423Z,100.00
2022-11-05T04:15:13.733Z,100.00
2022-11-05T04:20:33.649Z,100.00
2022-11-05T04:25:34.755Z,100.00
2022-11-05T04:30:36.248Z,100.00
2022-11-05T04:35:45.789Z,100.00
2022-11-05T04:40:47.561Z,100.00
2022-11-05T04:45:48.589Z,100.00
2022-11-05T04:50:49.500Z,100.00
2022-11-05T04:55:50.602Z,100.00
2022-11-05T05:00:52.041Z,100.00
2022-11-05T05:05:54.028Z,100.00
2022-11-05T05:10:55.510Z,100.00
2022-11-05T05:15:56.828Z,100.00
2022-11-05T05:21:17.490Z,100.00
2022-11-05T05:26:18.510Z,100.00
2022-11-05T05:31:20.720Z,100.00
2022-11-05T05:36:22.703Z,100.00
2022-11-05T05:41:24.402Z,100.00
2022-11-05T05:46:25.446Z,100.00
2022-11-05T05:51:26.376Z,100.00
2022-11-05T05:56:27.417Z,100.00
2022-11-05T06:01:28.478Z,100.00
2022-11-05T06:06:29.867Z,100.00
2022-11-05T06:11:30.926Z,100.00
2022-11-05T06:16:35.191Z,100.00
2022-11-05T06:21:36.421Z,100.00
2022-11-05T06:26:42.041Z,100.00
2022-11-05T06:31:43.014Z,100.00
2022-11-05T06:36:44.067Z,100.00
2022-11-05T06:42:12.067Z,100.00
2022-11-05T06:47:06.268Z,100.00
2022-11-05T06:52:07.251Z,100.00
2022-11-05T06:57:12.070Z,100.00
2022-11-05T07:02:13.212Z,100.00
2022-11-05T07:07:14.692Z,100.00
2022-11-05T07:12:15.615Z,100.00
2022-11-05T07:17:17.868Z,100.00
2022-11-05T07:22:18.880Z,100.00
2022-11-05T07:27:19.975Z,100.00
2022-11-05T07:32:20.919Z,100.00
2022-11-05T07:37:21.979Z,100.00
2022-11-05T07:42:22.980Z,100.00
2022-11-05T07:47:24.017Z,100.00
2022-11-05T07:52:25.010Z,100.00
2022-11-05T07:57:26.066Z,100.00
2022-11-05T08:02:27.290Z,100.00
2022-11-05T08:07:28.518Z,100.00
2022-11-05T08:12:30.254Z,100.00
2022-11-05T08:17:31.656Z,100.00
2022-11-05T08:22:32.622Z,100.00
2022-11-05T08:27:33.650Z,100.00
2022-11-05T08:32:35.044Z,100.00
2022-11-05T08:37:36.282Z,100.00
2022-11-05T08:42:37.259Z,100.00
2022-11-05T08:47:38.318Z,100.00
2022-11-05T08:52:39.998Z,100.00
2022-11-05T08:57:41.026Z,100.00
2022-11-05T09:02:42.028Z,100.00
2022-11-05T09:07:43.201Z,100.00
2022-11-05T09:12:44.287Z,100.00
2022-11-05T09:17:45.250Z,100.00
2022-11-05T09:22:46.751Z,100.00
2022-11-05T09:27:47.768Z,100.00
2022-11-05T09:32:48.791Z,100.00
2022-11-05T09:37:49.854Z,100.00
2022-11-05T09:42:53.219Z,100.00
2022-11-05T09:48:03.265Z,100.00
2022-11-05T09:53:04.661Z,100.00
2022-11-05T09:58:18.359Z,100.00
2022-11-05T10:03:22.272Z,100.00
2022-11-05T10:08:31.844Z,100.00
2022-11-05T10:13:41.573Z,100.00
2022-11-05T10:18:47.592Z,100.00
2022-11-05T10:23:48.670Z,100.00
2022-11-05T10:28:51.976Z,100.00
2022-11-05T10:33:58.729Z,100.00
2022-11-05T10:39:08.792Z,100.00
2022-11-05T10:44:25.710Z,100.00
2022-11-05T10:49:44.562Z,100.00
2022-11-05T10:54:46.836Z,100.00
2022-11-05T10:59:48.080Z,100.00
2022-11-05T11:04:52.972Z,100.00
2022-11-05T11:09:54.474Z,100.00
2022-11-05T11:15:03.639Z,100.00
2022-11-05T11:20:20.244Z,100.00
2022-11-05T11:25:24.785Z,100.00
2022-11-05T11:30:26.687Z,100.00
2022-11-05T11:35:28.612Z,100.00
2022-11-05T11:40:33.662Z,100.00
2022-11-05T11:45:45.986Z,100.00
2022-11-05T11:50:48.261Z,100.00
2022-11-05T11:56:11.468Z,100.00
2022-11-05T12:01:54.576Z,100.00
2022-11-05T12:07:17.628Z,100.00
2022-11-05T12:12:28.037Z,100.00
2022-11-05T12:17:45.300Z,100.00
2022-11-05T12:23:08.811Z,100.00
2022-11-05T12:28:13.306Z,100.00
2022-11-05T12:33:41.655Z,100.00
2022-11-05T12:38:52.555Z,100.00
2022-11-05T12:44:27.098Z,100.00
2022-11-05T12:49:46.975Z,100.00
2022-11-05T12:55:01.209Z,100.00
2022-11-05T13:00:05.949Z,100.00
2022-11-05T13:05:18.906Z,100.00
2022-11-05T13:10:31.070Z,100.00
2022-11-05T13:15:38.295Z,100.00
2022-11-05T13:20:45.097Z,100.00
2022-11-05T13:25:52.498Z,100.00
2022-11-05T13:31:00.626Z,100.00
2022-11-05T13:36:34.031Z,100.00
2022-11-05T13:42:01.070Z,100.00
2022-11-05T13:47:40.187Z,100.00
2022-11-05T13:52:58.274Z,100.00
2022-11-05T13:58:37.231Z,100.00
2022-11-05T14:03:45.321Z,100.00
2022-11-05T14:08:46.430Z,100.00
2022-11-05T14:13:53.942Z,100.00
2022-11-05T14:19:17.782Z,100.00
2022-11-05T14:24:24.596Z,100.00
2022-11-05T14:29:44.018Z,100.00
2022-11-05T14:34:45.172Z,100.00
2022-11-05T14:39:47.107Z,100.00
2022-11-05T14:45:13.055Z,100.00
2022-11-05T14:50:38.189Z,100.00
2022-11-05T14:55:42.666Z,100.00
2022-11-05T15:00:46.033Z,100.00
2022-11-05T15:05:47.013Z,100.00
2022-11-05T15:10:48.414Z,100.00
2022-11-05T15:15:51.311Z,100.00
2022-11-05T15:20:56.841Z,100.00
2022-11-05T15:26:11.477Z,100.00
2022-11-05T15:31:12.433Z,100.00
2022-11-05T15:36:32.462Z,100.00
2022-11-05T15:41:33.863Z,100.00
2022-11-05T15:46:34.877Z,100.00
2022-11-05T15:51:36.352Z,100.00
2022-11-05T15:56:49.005Z,100.00
2022-11-05T16:02:00.392Z,100.00
2022-11-05T16:07:09.953Z,100.00
2022-11-05T16:12:18.066Z,100.00
2022-11-05T16:17:23.314Z,100.00
2022-11-05T16:22:25.062Z,100.00
2022-11-05T16:27:26.414Z,100.00
2022-11-05T16:32:31.095Z,100.00
2022-11-05T16:37:40.885Z,100.00
2022-11-05T16:42:42.586Z,100.00
2022-11-05T16:47:45.366Z,100.00
2022-11-05T16:52:46.960Z,100.00
2022-11-05T16:57:54.692Z,100.00
2022-11-05T17:02:56.110Z,100.00
2022-11-05T17:07:57.776Z,100.00
2022-11-05T17:12:58.870Z,100.00
2022-11-05T17:18:04.915Z,100.00
2022-11-05T17:23:07.339Z,100.00
2022-11-05T17:28:10.319Z,100.00
2022-11-05T17:33:12.078Z,100.00
2022-11-05T17:38:15.681Z,100.00
2022-11-05T17:43:17.632Z,100.00
2022-11-05T17:48:20.364Z,100.00
2022-11-05T17:53:21.600Z,100.00
2022-11-05T17:58:22.659Z,100.00
2022-11-05T18:03:24.023Z,100.00
2022-11-05T18:08:26.577Z,100.00
2022-11-05T18:13:27.530Z,100.00
2022-11-05T18:18:28.812Z,100.00
2022-11-05T18:23:29.843Z,100.00
2022-11-05T18:28:34.292Z,100.00
2022-11-05T18:33:35.293Z,100.00
2022-11-05T18:38:36.602Z,100.00
2022-11-05T18:43:37.623Z,100.00
2022-11-05T18:48:38.636Z,100.00
2022-11-05T18:53:39.920Z,100.00
2022-11-05T18:58:41.890Z,100.00
2022-11-05T19:03:43.159Z,100.00
2022-11-05T19:08:44.668Z,100.00
2022-11-05T19:13:46.576Z,100.00
2022-11-05T19:18:48.835Z,100.00
2022-11-05T19:23:51.204Z,100.00
2022-11-05T19:28:52.203Z,100.00
2022-11-05T19:33:53.811Z,100.00
2022-11-05T19:38:57.136Z,100.00
2022-11-05T19:44:00.974Z,100.00
2022-11-05T19:49:02.477Z,100.00
2022-11-05T19:54:04.873Z,100.00
2022-11-05T19:59:06.312Z,100.00
2022-11-05T20:04:11.064Z,100.00
2022-11-05T20:09:22.157Z,100.00
2022-11-05T20:14:25.300Z,100.00
2022-11-05T20:19:28.373Z,100.00
2022-11-05T20:24:29.534Z,100.00
2022-11-05T20:29:35.245Z,100.00
2022-11-05T20:34:37.905Z,100.00
2022-11-05T20:39:38.919Z,100.00
2022-11-05T20:44:40.209Z,100.00
2022-11-05T20:49:41.111Z,100.00
2022-11-05T20:54:42.453Z,100.00
2022-11-05T20:59:43.489Z,100.00
2022-11-05T21:04:45.101Z,100.00
2022-11-05T21:09:46.868Z,100.00
2022-11-05T21:14:48.913Z,100.00
2022-11-05T21:19:52.567Z,100.00
2022-11-05T21:24:53.663Z,100.00
2022-11-05T21:29:54.949Z,100.00
2022-11-05T21:34:55.914Z,100.00
2022-11-05T21:39:56.915Z,100.00
2022-11-05T21:45:00.606Z,100.00
2022-11-05T21:50:02.247Z,100.00
2022-11-05T21:55:22.385Z,100.00
2022-11-05T22:00:23.593Z,100.00
2022-11-05T22:05:26.290Z,100.00
2022-11-05T22:10:27.760Z,100.00
2022-11-05T22:15:28.810Z,100.00
2022-11-05T22:20:30.027Z,100.00
2022-11-05T22:25:30.995Z,100.00
2022-11-05T22:30:33.989Z,100.00
2022-11-05T22:35:38.589Z,100.00
2022-11-05T22:40:39.624Z,100.00
2022-11-05T22:45:40.649Z,100.00
2022-11-05T22:50:42.123Z,100.00
2022-11-05T22:55:43.131Z,100.00
2022-11-05T23:00:44.034Z,100.00
2022-11-05T23:05:45.151Z,100.00
2022-11-05T23:11:04.908Z,100.00
2022-11-05T23:16:26.912Z,100.00
2022-11-05T23:21:46.907Z,100.00
2022-11-05T23:26:50.747Z,100.00
2022-11-05T23:32:11.135Z,100.00
2022-11-05T23:37:30.681Z,100.00
2022-11-05T23:42:50.374Z,100.00
2022-11-05T23:48:10.827Z,100.00
2022-11-05T23:53:12.312Z,100.00
2022-11-05T23:58:14.580Z,100.00
